createdAt,value
2023-02-28T00:00:44.584Z,19.60
2023-02-28T00:03:20.978Z,20.80
2023-02-28T00:05:52.192Z,21.70
2023-02-28T00:08:23.284Z,18.40
2023-02-28T00:10:54.176Z,21.10
2023-02-28T00:13:25.323Z,18.40
2023-02-28T00:16:03.135Z,19.10
2023-02-28T00:18:34.212Z,22.20
2023-02-28T00:21:05.431Z,20.90
2023-02-28T00:23:36.819Z,20.10
2023-02-28T00:26:08.001Z,17.70
2023-02-28T00:28:39.145Z,19.30
2023-02-28T00:31:10.243Z,18.20
2023-02-28T00:33:41.216Z,16.00
2023-02-28T00:36:13.591Z,17.10
2023-02-28T00:38:44.652Z,23.70
2023-02-28T00:41:15.888Z,17.70
2023-02-28T00:43:46.920Z,17.50
2023-02-28T00:46:17.933Z,18.30
2023-02-28T00:48:48.854Z,18.30
2023-02-28T00:51:19.830Z,14.30
2023-02-28T00:53:51.287Z,16.50
2023-02-28T00:56:22.369Z,17.40
2023-02-28T00:58:53.061Z,19.80
2023-02-28T01:01:23.909Z,15.60
2023-02-28T01:03:54.768Z,21.20
2023-02-28T01:06:25.717Z,20.40
2023-02-28T01:08:56.597Z,20.00
2023-02-28T01:11:27.748Z,20.80
2023-02-28T01:13:58.988Z,19.50
2023-02-28T01:16:29.677Z,21.10
2023-02-28T01:19:00.662Z,21.20
2023-02-28T01:21:31.782Z,21.50
2023-02-28T01:24:03.158Z,19.20
2023-02-28T01:26:33.951Z,23.30
2023-02-28T01:29:05.030Z,21.60
2023-02-28T01:31:36.284Z,20.80
2023-02-28T01:34:07.107Z,21.60
2023-02-28T01:36:39.077Z,20.90
2023-02-28T01:39:10.120Z,22.10
2023-02-28T01:41:41.248Z,18.60
2023-02-28T01:44:25.505Z,21.10
2023-02-28T01:46:56.536Z,21.90
2023-02-28T01:49:27.432Z,19.00
2023-02-28T01:51:58.838Z,22.40
2023-02-28T01:54:32.329Z,21.70
2023-02-28T01:57:04.306Z,21.40
2023-02-28T01:59:38.850Z,20.90
2023-02-28T02:02:10.714Z,22.10
2023-02-28T02:04:43.309Z,22.60
2023-02-28T02:07:15.274Z,20.00
2023-02-28T02:09:48.910Z,23.40
2023-02-28T02:12:25.811Z,21.40
2023-02-28T02:15:03.278Z,21.60
2023-02-28T02:17:37.079Z,20.20
2023-02-28T02:20:21.535Z,24.60
2023-02-28T02:23:10.517Z,20.60
2023-02-28T02:25:42.782Z,23.50
2023-02-28T02:28:21.185Z,25.10
2023-02-28T02:31:15.396Z,23.30
2023-02-28T02:33:52.555Z,22.70
2023-02-28T02:36:25.633Z,21.80
2023-02-28T02:39:01.492Z,23.30
2023-02-28T02:41:36.832Z,21.40
2023-02-28T02:44:14.496Z,18.30
2023-02-28T02:46:46.658Z,17.70
2023-02-28T02:49:18.901Z,16.70
2023-02-28T02:51:50.096Z,23.60
2023-02-28T02:54:23.300Z,20.00
2023-02-28T02:59:25.181Z,20.90
2023-02-28T03:01:58.055Z,24.10
2023-02-28T03:04:30.979Z,22.00
2023-02-28T03:07:03.201Z,22.30
2023-02-28T03:09:36.883Z,22.70
2023-02-28T03:12:09.190Z,20.20
2023-02-28T03:14:47.404Z,23.90
2023-02-28T03:17:33.100Z,20.40
2023-02-28T03:20:08.420Z,22.30
2023-02-28T03:22:50.757Z,19.70
2023-02-28T03:25:23.504Z,24.00
2023-02-28T03:27:58.177Z,31.10
2023-02-28T03:30:32.034Z,26.20
2023-02-28T03:33:07.191Z,28.70
2023-02-28T03:35:39.507Z,28.40
2023-02-28T03:38:15.024Z,25.00
2023-02-28T03:40:49.142Z,23.10
2023-02-28T03:43:25.009Z,25.10
2023-02-28T03:45:57.389Z,23.90
2023-02-28T03:48:29.870Z,23.60
2023-02-28T03:51:01.609Z,21.60
2023-02-28T03:53:34.169Z,31.70
2023-02-28T03:56:08.711Z,28.60
2023-02-28T03:58:41.645Z,26.50
2023-02-28T04:01:15.140Z,21.80
2023-02-28T04:03:46.182Z,27.90
2023-02-28T04:06:19.070Z,28.40
2023-02-28T04:08:50.187Z,27.10
2023-02-28T04:11:23.362Z,26.90
2023-02-28T04:13:54.220Z,24.30
2023-02-28T04:16:34.896Z,28.20
2023-02-28T04:19:07.945Z,27.70
2023-02-28T04:21:40.557Z,27.80
2023-02-28T04:24:15.416Z,28.90
2023-02-28T04:26:47.025Z,30.10
2023-02-28T04:29:21.051Z,22.90
2023-02-28T04:31:52.469Z,29.80
2023-02-28T04:34:24.799Z,26.20
2023-02-28T04:37:12.038Z,26.30
2023-02-28T04:39:44.540Z,34.80
2023-02-28T04:42:15.912Z,32.70
2023-02-28T04:44:46.653Z,31.70
2023-02-28T04:47:17.497Z,34.40
2023-02-28T04:49:48.420Z,29.90
2023-02-28T04:52:19.505Z,32.30
2023-02-28T04:54:50.492Z,27.50
2023-02-28T04:57:21.226Z,27.30
2023-02-28T04:59:52.065Z,25.60
2023-02-28T05:02:23.070Z,33.50
2023-02-28T05:04:54.247Z,27.80
2023-02-28T05:07:25.284Z,26.30
2023-02-28T05:09:56.334Z,29.50
2023-02-28T05:12:27.262Z,32.20
2023-02-28T05:14:58.206Z,32.70
2023-02-28T05:17:29.043Z,31.00
2023-02-28T05:20:09.966Z,32.70
2023-02-28T05:22:46.370Z,32.40
2023-02-28T05:25:19.380Z,32.60
2023-02-28T05:27:50.454Z,32.80
2023-02-28T05:30:21.469Z,27.50
2023-02-28T05:32:54.227Z,30.60
2023-02-28T05:35:25.680Z,32.90
2023-02-28T05:37:56.816Z,30.50
2023-02-28T05:40:27.964Z,26.90
2023-02-28T05:42:59.114Z,32.20
2023-02-28T05:45:29.959Z,30.00
2023-02-28T05:48:01.082Z,28.10
2023-02-28T05:50:32.017Z,27.60
2023-02-28T05:53:02.855Z,30.60
2023-02-28T05:55:33.797Z,30.20
2023-02-28T05:58:04.945Z,27.00
2023-02-28T06:00:35.882Z,23.30
2023-02-28T06:03:07.085Z,25.80
2023-02-28T06:05:39.730Z,27.90
2023-02-28T06:08:10.571Z,32.20
2023-02-28T06:10:41.335Z,29.50
2023-02-28T06:13:13.567Z,31.70
2023-02-28T06:15:44.370Z,31.30
2023-02-28T06:18:15.414Z,26.20
2023-02-28T06:20:46.012Z,27.80
2023-02-28T06:23:17.256Z,25.10
2023-02-28T06:25:48.892Z,26.90
2023-02-28T06:28:19.931Z,35.40
2023-02-28T06:30:50.696Z,32.70
2023-02-28T06:33:21.864Z,29.20
2023-02-28T06:35:53.994Z,31.60
2023-02-28T06:38:25.478Z,36.20
2023-02-28T06:40:59.708Z,33.80
2023-02-28T06:43:36.525Z,39.00
2023-02-28T06:46:14.842Z,37.60
2023-02-28T06:48:46.989Z,33.90
2023-02-28T06:51:18.720Z,33.80
2023-02-28T06:53:49.687Z,33.30
2023-02-28T06:56:21.532Z,38.90
2023-02-28T06:58:54.021Z,37.80
2023-02-28T07:01:25.699Z,42.70
2023-02-28T07:04:01.940Z,43.80
2023-02-28T07:06:33.614Z,46.00
2023-02-28T07:09:05.500Z,42.70
2023-02-28T07:11:36.546Z,40.20
2023-02-28T07:14:07.486Z,37.30
2023-02-28T07:16:38.826Z,38.40
2023-02-28T07:19:09.456Z,38.80
2023-02-28T07:21:40.603Z,42.10
2023-02-28T07:24:11.846Z,36.60
2023-02-28T07:26:47.706Z,38.00
2023-02-28T07:29:18.495Z,33.20
2023-02-28T07:31:49.338Z,38.60
2023-02-28T07:34:20.157Z,37.00
2023-02-28T07:36:54.939Z,30.00
2023-02-28T07:39:25.834Z,36.20
2023-02-28T07:41:57.433Z,33.70
2023-02-28T07:44:34.015Z,35.40
2023-02-28T07:47:05.406Z,31.30
2023-02-28T07:49:40.292Z,34.80
2023-02-28T07:52:12.352Z,32.70
2023-02-28T07:54:43.076Z,30.00
2023-02-28T07:57:14.638Z,29.80
2023-02-28T07:59:46.183Z,26.90
2023-02-28T08:02:18.366Z,30.90
2023-02-28T08:04:49.708Z,30.50
2023-02-28T08:07:21.247Z,30.40
2023-02-28T08:09:51.781Z,24.90
2023-02-28T08:12:23.098Z,25.10
2023-02-28T08:14:53.704Z,25.60
2023-02-28T08:17:24.499Z,31.80
2023-02-28T08:19:55.119Z,30.10
2023-02-28T08:22:26.094Z,24.00
2023-02-28T08:24:56.874Z,26.60
2023-02-28T08:27:32.949Z,23.40
2023-02-28T08:30:04.232Z,23.50
2023-02-28T08:32:36.049Z,26.20
2023-02-28T08:35:08.080Z,24.30
2023-02-28T08:37:39.079Z,27.50
2023-02-28T08:40:11.255Z,24.60
2023-02-28T08:42:42.410Z,22.70
2023-02-28T08:45:16.749Z,19.20
2023-02-28T08:47:47.724Z,24.00
2023-02-28T08:50:18.766Z,19.60
2023-02-28T08:52:49.706Z,18.10
2023-02-28T08:55:20.781Z,19.00
2023-02-28T08:57:51.919Z,15.70
2023-02-28T09:00:23.986Z,13.80
2023-02-28T09:02:56.017Z,14.00
2023-02-28T09:05:27.162Z,14.00
2023-02-28T09:07:57.984Z,13.50
2023-02-28T09:10:28.877Z,17.30
2023-02-28T09:12:59.598Z,16.70
2023-02-28T09:15:32.067Z,12.20
2023-02-28T09:18:02.776Z,13.10
2023-02-28T09:20:33.632Z,9.10
2023-02-28T09:23:04.586Z,19.80
2023-02-28T09:25:35.657Z,11.80
2023-02-28T09:28:07.064Z,13.90
2023-02-28T09:30:38.069Z,14.30
2023-02-28T09:33:08.699Z,13.90
2023-02-28T09:35:39.747Z,12.30
2023-02-28T09:38:11.318Z,11.60
2023-02-28T09:40:43.768Z,13.00
2023-02-28T09:43:16.918Z,13.00
2023-02-28T09:45:50.315Z,14.10
2023-02-28T09:48:24.414Z,19.80
2023-02-28T09:51:00.101Z,10.80
2023-02-28T09:53:35.124Z,13.70
2023-02-28T09:56:09.259Z,10.80
2023-02-28T09:58:44.494Z,16.20
2023-02-28T10:01:22.093Z,13.70
2023-02-28T10:03:58.302Z,16.60
2023-02-28T10:06:37.108Z,13.60
2023-02-28T10:09:11.781Z,16.60
2023-02-28T10:11:44.079Z,15.30
2023-02-28T10:14:16.761Z,14.80
2023-02-28T10:16:53.176Z,15.30
2023-02-28T10:19:26.583Z,16.40
2023-02-28T10:21:59.145Z,15.80
2023-02-28T10:24:33.131Z,14.80
2023-02-28T10:27:08.558Z,13.80
2023-02-28T10:29:42.018Z,14.40
2023-02-28T10:34:42.184Z,14.50
2023-02-28T10:37:13.970Z,16.60
2023-02-28T10:39:46.946Z,15.30
2023-02-28T10:42:28.240Z,14.70
2023-02-28T10:45:12.857Z,13.80
2023-02-28T10:47:53.901Z,15.20
2023-02-28T10:50:44.737Z,15.70
2023-02-28T10:53:31.934Z,16.40
2023-02-28T10:56:04.989Z,15.20
2023-02-28T10:58:48.894Z,14.30
2023-02-28T11:01:21.748Z,14.10
2023-02-28T11:03:53.763Z,16.50
2023-02-28T11:06:25.953Z,14.00
2023-02-28T11:08:57.816Z,15.50
2023-02-28T11:11:30.732Z,14.60
2023-02-28T11:14:08.302Z,15.50
2023-02-28T11:16:39.880Z,15.40
2023-02-28T11:19:20.182Z,14.70
2023-02-28T11:21:54.848Z,16.00
2023-02-28T11:24:27.328Z,12.80
2023-02-28T11:26:58.938Z,15.30
2023-02-28T11:29:31.922Z,14.60
2023-02-28T11:32:07.599Z,14.90
2023-02-28T11:34:39.133Z,17.10
2023-02-28T11:37:13.806Z,15.90
2023-02-28T11:39:45.111Z,18.90
2023-02-28T11:42:21.462Z,18.90
2023-02-28T11:45:01.406Z,13.60
2023-02-28T11:47:35.443Z,16.90
2023-02-28T11:50:14.130Z,16.10
2023-02-28T11:52:48.007Z,14.20
2023-02-28T11:55:22.161Z,14.10
2023-02-28T11:58:09.507Z,17.30
2023-02-28T12:00:49.705Z,16.30
2023-02-28T12:03:26.183Z,15.60
2023-02-28T12:06:03.210Z,15.10
2023-02-28T12:08:41.778Z,17.40
2023-02-28T12:11:19.566Z,16.40
2023-02-28T12:13:52.891Z,11.70
2023-02-28T12:16:48.175Z,13.80
2023-02-28T12:19:26.407Z,17.70
2023-02-28T12:22:22.250Z,18.30
2023-02-28T12:25:04.276Z,15.50
2023-02-28T12:27:36.638Z,15.30
2023-02-28T12:30:16.233Z,12.00
2023-02-28T12:32:48.841Z,13.70
2023-02-28T12:35:21.951Z,12.70
2023-02-28T12:37:57.418Z,15.40
2023-02-28T12:40:30.632Z,12.20
2023-02-28T12:43:02.994Z,14.20
2023-02-28T12:45:42.043Z,14.30
2023-02-28T12:48:16.215Z,15.30
2023-02-28T12:50:51.828Z,19.30
2023-02-28T12:53:27.946Z,14.80
2023-02-28T12:56:05.565Z,15.00
2023-02-28T12:58:38.599Z,14.00
2023-02-28T13:01:16.978Z,14.40
2023-02-28T13:04:04.237Z,18.90
2023-02-28T13:06:57.796Z,16.80
2023-02-28T13:09:30.747Z,16.30
2023-02-28T13:12:01.453Z,14.20
2023-02-28T13:14:37.787Z,13.10
2023-02-28T13:17:14.348Z,12.40
2023-02-28T13:19:46.225Z,16.20
2023-02-28T13:22:21.357Z,15.10
2023-02-28T13:24:55.366Z,16.70
2023-02-28T13:27:36.271Z,14.60
2023-02-28T13:30:20.643Z,12.80
2023-02-28T13:33:11.896Z,13.60
2023-02-28T13:35:49.669Z,11.90
2023-02-28T13:38:33.762Z,14.50
2023-02-28T13:41:27.176Z,12.90
2023-02-28T13:44:05.821Z,13.20
2023-02-28T13:46:38.550Z,12.80
2023-02-28T13:49:29.203Z,13.90
2023-02-28T13:52:15.412Z,11.20
2023-02-28T13:54:53.768Z,12.90
2023-02-28T13:57:27.951Z,11.80
2023-02-28T14:00:06.611Z,13.00
2023-02-28T14:07:52.841Z,15.70
2023-02-28T14:10:31.468Z,11.50
2023-02-28T14:13:03.977Z,10.90
2023-02-28T14:15:47.952Z,12.60
2023-02-28T14:18:22.082Z,13.40
2023-02-28T14:20:55.828Z,13.10
2023-02-28T14:23:36.511Z,13.30
2023-02-28T14:26:15.062Z,11.60
2023-02-28T14:28:52.330Z,13.80
2023-02-28T14:31:27.648Z,14.00
2023-02-28T14:34:16.153Z,12.10
2023-02-28T14:36:47.338Z,11.70
2023-02-28T14:39:19.604Z,12.30
2023-02-28T14:41:51.057Z,12.50
2023-02-28T14:44:22.797Z,11.20
2023-02-28T14:46:55.945Z,12.50
2023-02-28T14:49:29.913Z,13.90
2023-02-28T14:52:10.661Z,14.00
2023-02-28T14:54:41.937Z,13.40
2023-02-28T14:57:24.030Z,11.90
2023-02-28T15:00:01.646Z,13.20
2023-02-28T15:02:33.954Z,11.70
2023-02-28T15:05:14.000Z,12.40
2023-02-28T15:07:45.132Z,10.60
2023-02-28T15:10:20.001Z,14.00
2023-02-28T15:12:54.962Z,11.00
2023-02-28T15:15:35.921Z,11.30
2023-02-28T15:18:16.699Z,13.30
2023-02-28T15:20:48.133Z,11.80
2023-02-28T15:23:19.630Z,13.00
2023-02-28T15:25:51.001Z,14.20
2023-02-28T15:28:22.863Z,14.10
2023-02-28T15:30:55.673Z,11.40
2023-02-28T15:33:27.677Z,13.60
2023-02-28T15:36:15.776Z,14.80
2023-02-28T15:38:46.510Z,15.30
2023-02-28T15:41:27.196Z,14.80
2023-02-28T15:44:15.627Z,15.10
2023-02-28T15:46:55.679Z,13.20
2023-02-28T15:49:26.538Z,16.70
2023-02-28T15:51:58.796Z,15.90
2023-02-28T15:54:31.384Z,14.60
2023-02-28T15:57:05.573Z,12.30
2023-02-28T15:59:37.638Z,16.40
2023-02-28T16:02:16.931Z,16.60
2023-02-28T16:05:01.662Z,18.80
2023-02-28T16:07:37.476Z,14.80
2023-02-28T16:10:09.352Z,20.60
2023-02-28T16:12:41.292Z,15.80
2023-02-28T16:15:20.077Z,16.70
2023-02-28T16:17:50.906Z,16.00
2023-02-28T16:20:22.634Z,15.70
2023-02-28T16:22:53.527Z,17.10
2023-02-28T16:25:25.914Z,17.10
2023-02-28T16:27:58.705Z,15.00
2023-02-28T16:30:32.585Z,16.50
2023-02-28T16:33:03.319Z,17.20
2023-02-28T16:35:34.401Z,15.20
2023-02-28T16:38:05.239Z,16.80
2023-02-28T16:40:37.807Z,16.60
2023-02-28T16:43:10.710Z,16.20
2023-02-28T16:45:42.531Z,16.00
2023-02-28T16:48:16.180Z,16.20
2023-02-28T16:50:47.225Z,16.20
2023-02-28T16:53:18.352Z,18.80
2023-02-28T16:55:49.535Z,18.30
2023-02-28T16:58:22.994Z,16.80
2023-02-28T17:00:54.223Z,16.80
2023-02-28T17:03:33.868Z,16.60
2023-02-28T17:06:05.017Z,20.10
2023-02-28T17:08:38.141Z,16.40
2023-02-28T17:11:08.902Z,19.70
2023-02-28T17:13:42.479Z,18.20
2023-02-28T17:16:15.829Z,19.50
2023-02-28T17:18:47.068Z,20.80
2023-02-28T17:21:17.966Z,16.70
2023-02-28T17:23:49.149Z,29.30
2023-02-28T17:26:22.298Z,25.00
2023-02-28T17:31:23.508Z,20.10
2023-02-28T17:33:55.670Z,21.10
2023-02-28T17:36:29.030Z,31.20
2023-02-28T17:39:00.403Z,21.00
2023-02-28T17:41:31.550Z,20.10
2023-02-28T17:44:02.696Z,20.30
2023-02-28T17:46:33.948Z,22.20
2023-02-28T17:49:05.188Z,21.20
2023-02-28T17:51:35.922Z,18.70
2023-02-28T17:54:07.808Z,21.50
2023-02-28T17:56:38.637Z,19.80
2023-02-28T17:59:11.648Z,25.00
2023-02-28T18:01:42.934Z,32.90
2023-02-28T18:04:13.994Z,26.50
2023-02-28T18:06:51.128Z,32.70
2023-02-28T18:09:23.265Z,26.90
2023-02-28T18:11:55.913Z,26.50
2023-02-28T18:14:27.563Z,24.70
2023-02-28T18:16:58.835Z,28.10
2023-02-28T18:19:29.797Z,23.00
2023-02-28T18:22:00.928Z,25.60
2023-02-28T18:24:32.044Z,20.20
2023-02-28T18:27:02.874Z,22.20
2023-02-28T18:29:34.538Z,23.40
2023-02-28T18:32:06.272Z,23.10
2023-02-28T18:34:37.294Z,21.50
2023-02-28T18:37:08.116Z,23.70
2023-02-28T18:39:38.734Z,23.60
2023-02-28T18:42:10.269Z,21.90
2023-02-28T18:44:45.929Z,23.90
2023-02-28T18:47:17.038Z,22.20
2023-02-28T18:49:48.277Z,21.70
2023-02-28T18:52:19.511Z,25.60
2023-02-28T18:54:50.560Z,22.30
2023-02-28T18:57:21.803Z,22.40
2023-02-28T18:59:52.806Z,27.60
2023-02-28T19:02:23.896Z,23.90
2023-02-28T19:04:55.099Z,22.50
2023-02-28T19:07:26.007Z,23.20
2023-02-28T19:09:56.850Z,22.30
2023-02-28T19:12:28.254Z,19.80
2023-02-28T19:14:59.228Z,24.10
2023-02-28T19:17:30.385Z,22.90
2023-02-28T19:20:05.618Z,24.80
2023-02-28T19:22:41.531Z,23.50
2023-02-28T19:25:17.777Z,22.00
2023-02-28T19:27:49.328Z,31.70
2023-02-28T19:30:20.746Z,28.80
2023-02-28T19:32:52.181Z,31.70
2023-02-28T19:35:23.463Z,33.70
2023-02-28T19:37:59.973Z,33.30
2023-02-28T19:40:30.992Z,24.60
2023-02-28T19:43:04.234Z,39.90
2023-02-28T19:45:37.091Z,29.70
2023-02-28T19:48:10.263Z,32.10
2023-02-28T19:50:42.275Z,34.00
2023-02-28T19:53:13.257Z,35.90
2023-02-28T19:55:44.297Z,39.40
2023-02-28T19:58:15.378Z,41.20
2023-02-28T20:00:46.081Z,32.60
2023-02-28T20:03:18.802Z,43.00
2023-02-28T20:05:49.820Z,30.70
2023-02-28T20:08:20.729Z,30.00
2023-02-28T20:10:51.794Z,27.70
2023-02-28T20:13:28.110Z,38.30
2023-02-28T20:16:01.870Z,30.70
2023-02-28T20:18:37.144Z,29.80
2023-02-28T20:21:14.062Z,31.90
2023-02-28T20:23:50.488Z,32.30
2023-02-28T20:26:25.971Z,25.30
2023-02-28T20:29:00.802Z,26.50
2023-02-28T20:31:37.187Z,26.60
2023-02-28T20:34:08.797Z,25.70
2023-02-28T20:36:39.855Z,35.80
2023-02-28T20:39:11.450Z,34.50
2023-02-28T20:41:42.350Z,32.50
2023-02-28T20:44:14.898Z,29.60
2023-02-28T20:46:49.872Z,30.80
2023-02-28T20:49:21.146Z,38.50
2023-02-28T20:51:51.836Z,36.80
2023-02-28T20:54:22.841Z,42.60
2023-02-28T20:56:53.310Z,43.30
2023-02-28T20:59:29.560Z,40.90
2023-02-28T21:02:00.610Z,39.60
2023-02-28T21:04:36.966Z,40.40
2023-02-28T21:07:12.280Z,38.10
2023-02-28T21:09:43.454Z,40.00
2023-02-28T21:12:14.493Z,37.40
2023-02-28T21:14:49.729Z,43.40
2023-02-28T21:17:21.225Z,47.00
2023-02-28T21:19:51.928Z,48.70
2023-02-28T21:22:22.971Z,49.40
2023-02-28T21:24:53.692Z,49.00
2023-02-28T21:27:24.832Z,47.60
2023-02-28T21:29:55.633Z,41.70
2023-02-28T21:32:27.099Z,46.00
2023-02-28T21:34:58.744Z,50.70
2023-02-28T21:37:30.362Z,46.00
2023-02-28T21:40:01.061Z,45.60
2023-02-28T21:42:32.667Z,48.60
2023-02-28T21:45:03.699Z,48.50
2023-02-28T21:47:35.130Z,44.80
2023-02-28T21:50:07.289Z,46.20
2023-02-28T21:52:38.603Z,55.60
2023-02-28T21:55:10.287Z,46.60
2023-02-28T21:57:41.570Z,45.40
2023-02-28T22:00:17.015Z,55.60
2023-02-28T22:02:48.528Z,49.50
2023-02-28T22:05:19.831Z,48.50
2023-02-28T22:07:50.876Z,52.50
2023-02-28T22:10:21.753Z,53.00
2023-02-28T22:12:52.868Z,59.30
2023-02-28T22:15:24.313Z,59.60
2023-02-28T22:17:55.255Z,52.30
2023-02-28T22:20:25.773Z,60.30
2023-02-28T22:22:56.745Z,48.60
2023-02-28T22:25:27.877Z,53.30
2023-02-28T22:27:58.992Z,54.60
2023-02-28T22:30:29.755Z,52.30
2023-02-28T22:33:00.652Z,53.70
2023-02-28T22:35:31.396Z,56.50
2023-02-28T22:38:02.190Z,58.00
2023-02-28T22:40:34.284Z,56.70
2023-02-28T22:43:06.844Z,42.30
2023-02-28T22:45:38.461Z,36.80
2023-02-28T22:48:11.430Z,35.10
2023-02-28T22:50:42.024Z,35.90
2023-02-28T22:53:12.802Z,35.90
2023-02-28T22:55:43.334Z,46.50
2023-02-28T22:58:14.199Z,50.70
2023-02-28T23:00:44.835Z,46.40
2023-02-28T23:03:16.351Z,44.10
2023-02-28T23:05:47.030Z,42.80
2023-02-28T23:08:22.613Z,52.10
2023-02-28T23:10:53.550Z,47.90
2023-02-28T23:13:24.799Z,53.00
2023-02-28T23:15:55.635Z,57.90
2023-02-28T23:18:26.492Z,60.40
2023-02-28T23:20:58.752Z,57.50
2023-02-28T23:23:29.678Z,51.80
2023-02-28T23:26:00.388Z,58.10
2023-02-28T23:28:31.802Z,58.50
2023-02-28T23:31:04.716Z,58.10
2023-02-28T23:33:35.753Z,64.70
2023-02-28T23:36:11.554Z,66.20
2023-02-28T23:38:43.395Z,63.70
2023-02-28T23:41:14.624Z,63.90
2023-02-28T23:43:45.775Z,63.10
2023-02-28T23:46:17.872Z,72.30
2023-02-28T23:48:48.645Z,62.60
2023-02-28T23:51:20.631Z,62.90
2023-02-28T23:53:52.563Z,65.10
2023-02-28T23:56:23.979Z,67.90
2023-02-28T23:58:56.003Z,66.50
